sensor_id;sensor_type;location;lat;lon;timestamp;pressure;altitude;pressure_sealevel;temperature;humidity
56825;BME280;42705;50.326;18.772;2024-01-15T00:01:32;96698.29;;;-0.73;71.46
56825;BME280;42705;50.326;18.772;2024-01-15T00:06:54;96685.14;;;-0.77;71.69
56825;BME280;42705;50.326;18.772;2024-01-15T00:12:16;96675.39;;;-0.79;71.64
56825;BME280;42705;50.326;18.772;2024-01-15T00:17:38;96677.67;;;-0.80;71.56
56825;BME280;42705;50.326;18.772;2024-01-15T00:23:00;96669.86;;;-0.83;71.42
56825;BME280;42705;50.326;18.772;2024-01-15T00:28:22;96662.28;;;-0.83;71.86
56825;BME280;42705;50.326;18.772;2024-01-15T00:33:44;96643.82;;;-0.86;71.58
56825;BME280;42705;50.326;18.772;2024-01-15T00:39:06;96639.64;;;-0.90;71.56
56825;BME280;42705;50.326;18.772;2024-01-15T00:44:30;96640.17;;;-0.88;71.73
56825;BME280;42705;50.326;18.772;2024-01-15T00:49:52;96638.21;;;-0.89;71.47
56825;BME280;42705;50.326;18.772;2024-01-15T00:55:14;96634.58;;;-0.93;71.77
56825;BME280;42705;50.326;18.772;2024-01-15T01:00:36;96626.14;;;-0.93;71.91
56825;BME280;42705;50.326;18.772;2024-01-15T01:05:58;96622.33;;;-0.94;71.90
56825;BME280;42705;50.326;18.772;2024-01-15T01:11:20;96603.64;;;-0.94;71.89
56825;BME280;42705;50.326;18.772;2024-01-15T01:16:42;96592.45;;;-0.91;72.32
56825;BME280;42705;50.326;18.772;2024-01-15T01:22:04;96586.41;;;-0.91;71.95
56825;BME280;42705;50.326;18.772;2024-01-15T01:27:26;96580.61;;;-0.89;72.05
56825;BME280;42705;50.326;18.772;2024-01-15T01:32:48;96576.31;;;-0.89;71.79
56825;BME280;42705;50.326;18.772;2024-01-15T01:38:11;96567.70;;;-0.90;71.53
56825;BME280;42705;50.326;18.772;2024-01-15T01:43:33;96562.02;;;-0.90;71.63
56825;BME280;42705;50.326;18.772;2024-01-15T01:48:56;96558.13;;;-0.93;71.41
56825;BME280;42705;50.326;18.772;2024-01-15T01:54:19;96547.68;;;-0.96;71.69
56825;BME280;42705;50.326;18.772;2024-01-15T01:59:42;96542.27;;;-0.94;71.57
56825;BME280;42705;50.326;18.772;2024-01-15T02:05:05;96539.30;;;-0.91;71.29
56825;BME280;42705;50.326;18.772;2024-01-15T02:10:27;96531.73;;;-0.93;70.79
56825;BME280;42705;50.326;18.772;2024-01-15T02:15:49;96532.20;;;-0.92;70.80
56825;BME280;42705;50.326;18.772;2024-01-15T02:21:11;96519.90;;;-0.95;70.79
56825;BME280;42705;50.326;18.772;2024-01-15T02:26:34;96519.33;;;-0.99;70.72
56825;BME280;42705;50.326;18.772;2024-01-15T02:31:57;96509.38;;;-0.99;70.97
56825;BME280;42705;50.326;18.772;2024-01-15T02:37:19;96499.17;;;-1.00;70.71
56825;BME280;42705;50.326;18.772;2024-01-15T02:42:42;96494.56;;;-1.03;70.67
56825;BME280;42705;50.326;18.772;2024-01-15T02:48:04;96488.98;;;-1.01;70.73
56825;BME280;42705;50.326;18.772;2024-01-15T02:53:27;96488.16;;;-1.02;70.35
56825;BME280;42705;50.326;18.772;2024-01-15T02:58:48;96476.91;;;-1.05;70.31
56825;BME280;42705;50.326;18.772;2024-01-15T03:04:10;96469.52;;;-1.05;70.25
56825;BME280;42705;50.326;18.772;2024-01-15T03:09:32;96459.17;;;-1.04;70.10
56825;BME280;42705;50.326;18.772;2024-01-15T03:14:54;96444.98;;;-1.09;69.89
56825;BME280;42705;50.326;18.772;2024-01-15T03:20:16;96443.66;;;-1.14;69.84
56825;BME280;42705;50.326;18.772;2024-01-15T03:25:38;96437.11;;;-1.13;69.87
56825;BME280;42705;50.326;18.772;2024-01-15T03:31:00;96424.55;;;-1.15;69.55
56825;BME280;42705;50.326;18.772;2024-01-15T03:36:22;96419.06;;;-1.20;69.49
56825;BME280;42705;50.326;18.772;2024-01-15T03:41:44;96415.48;;;-1.20;69.38
56825;BME280;42705;50.326;18.772;2024-01-15T03:47:06;96414.61;;;-1.22;69.46
56825;BME280;42705;50.326;18.772;2024-01-15T03:52:28;96406.50;;;-1.28;69.50
56825;BME280;42705;50.326;18.772;2024-01-15T03:57:50;96400.77;;;-1.29;69.71
56825;BME280;42705;50.326;18.772;2024-01-15T04:03:12;96397.13;;;-1.26;69.59
56825;BME280;42705;50.326;18.772;2024-01-15T04:08:34;96401.15;;;-1.27;69.67
56825;BME280;42705;50.326;18.772;2024-01-15T04:13:56;96393.65;;;-1.28;69.58
56825;BME280;42705;50.326;18.772;2024-01-15T04:19:18;96390.12;;;-1.24;69.75
56825;BME280;42705;50.326;18.772;2024-01-15T04:24:40;96385.39;;;-1.21;69.55
56825;BME280;42705;50.326;18.772;2024-01-15T04:30:02;96374.18;;;-1.22;69.43
56825;BME280;42705;50.326;18.772;2024-01-15T04:35:24;96373.23;;;-1.21;69.59
56825;BME280;42705;50.326;18.772;2024-01-15T04:40:46;96375.23;;;-1.13;69.24
56825;BME280;42705;50.326;18.772;2024-01-15T04:46:08;96382.30;;;-1.07;69.37
56825;BME280;42705;50.326;18.772;2024-01-15T04:51:31;96371.28;;;-1.04;69.18
56825;BME280;42705;50.326;18.772;2024-01-15T04:56:52;96376.19;;;-1.03;68.64
56825;BME280;42705;50.326;18.772;2024-01-15T05:02:14;96379.33;;;-0.97;68.74
56825;BME280;42705;50.326;18.772;2024-01-15T05:07:37;96369.25;;;-0.95;68.72
56825;BME280;42705;50.326;18.772;2024-01-15T05:12:59;96368.29;;;-0.96;68.65
56825;BME280;42705;50.326;18.772;2024-01-15T05:18:21;96362.52;;;-0.97;68.59
56825;BME280;42705;50.326;18.772;2024-01-15T05:23:43;96355.60;;;-0.96;68.48
56825;BME280;42705;50.326;18.772;2024-01-15T05:29:05;96362.10;;;-0.98;68.42
56825;BME280;42705;50.326;18.772;2024-01-15T05:34:27;96364.86;;;-1.01;68.41
56825;BME280;42705;50.326;18.772;2024-01-15T05:39:49;96366.17;;;-1.00;68.12
56825;BME280;42705;50.326;18.772;2024-01-15T05:45:11;96363.65;;;-1.00;68.18
56825;BME280;42705;50.326;18.772;2024-01-15T05:50:33;96365.20;;;-1.05;68.51
56825;BME280;42705;50.326;18.772;2024-01-15T05:55:55;96372.26;;;-1.04;68.56
56825;BME280;42705;50.326;18.772;2024-01-15T06:01:17;96368.02;;;-1.04;68.50
56825;BME280;42705;50.326;18.772;2024-01-15T06:06:39;96375.17;;;-1.10;68.56
56825;BME280;42705;50.326;18.772;2024-01-15T06:12:01;96369.63;;;-1.16;68.68
56825;BME280;42705;50.326;18.772;2024-01-15T06:17:23;96373.19;;;-1.15;68.98
56825;BME280;42705;50.326;18.772;2024-01-15T06:22:45;96373.49;;;-1.13;68.78
56825;BME280;42705;50.326;18.772;2024-01-15T06:28:07;96373.11;;;-1.14;68.70
56825;BME280;42705;50.326;18.772;2024-01-15T06:33:29;96378.44;;;-1.17;68.50
56825;BME280;42705;50.326;18.772;2024-01-15T06:38:51;96375.08;;;-1.13;68.76
56825;BME280;42705;50.326;18.772;2024-01-15T06:44:13;96382.06;;;-1.10;68.83
56825;BME280;42705;50.326;18.772;2024-01-15T06:49:35;96386.38;;;-1.11;68.84
56825;BME280;42705;50.326;18.772;2024-01-15T06:54:57;96392.46;;;-1.07;68.76
56825;BME280;42705;50.326;18.772;2024-01-15T07:00:20;96389.54;;;-1.01;68.69
56825;BME280;42705;50.326;18.772;2024-01-15T07:05:43;96396.13;;;-0.97;68.48
56825;BME280;42705;50.326;18.772;2024-01-15T07:11:05;96403.48;;;-0.99;68.20
56825;BME280;42705;50.326;18.772;2024-01-15T07:16:28;96422.20;;;-0.95;68.46
56825;BME280;42705;50.326;18.772;2024-01-15T07:21:50;96425.81;;;-0.91;68.46
56825;BME280;42705;50.326;18.772;2024-01-15T07:27:12;96425.29;;;-0.86;68.12
56825;BME280;42705;50.326;18.772;2024-01-15T07:32:35;96421.73;;;-0.84;67.62
56825;BME280;42705;50.326;18.772;2024-01-15T07:37:56;96428.67;;;-0.81;67.55
56825;BME280;42705;50.326;18.772;2024-01-15T07:43:19;96436.02;;;-0.79;67.77
56825;BME280;42705;50.326;18.772;2024-01-15T07:48:41;96450.61;;;-0.76;67.66
56825;BME280;42705;50.326;18.772;2024-01-15T07:54:03;96459.04;;;-0.79;66.94
56825;BME280;42705;50.326;18.772;2024-01-15T07:59:26;96451.47;;;-0.83;67.25
56825;BME280;42705;50.326;18.772;2024-01-15T08:04:47;96454.88;;;-0.85;67.23
56825;BME280;42705;50.326;18.772;2024-01-15T08:10:10;96448.55;;;-0.85;66.89
56825;BME280;42705;50.326;18.772;2024-01-15T08:15:33;96456.16;;;-0.80;67.01
56825;BME280;42705;50.326;18.772;2024-01-15T08:20:55;96461.83;;;-0.78;66.94
56825;BME280;42705;50.326;18.772;2024-01-15T08:26:17;96464.90;;;-0.78;67.15
56825;BME280;42705;50.326;18.772;2024-01-15T08:31:39;96469.13;;;-0.79;67.99
56825;BME280;42705;50.326;18.772;2024-01-15T08:37:01;96467.80;;;-0.75;68.23
56825;BME280;42705;50.326;18.772;2024-01-15T08:42:24;96463.10;;;-0.72;68.32
56825;BME280;42705;50.326;18.772;2024-01-15T08:47:46;96462.79;;;-0.70;68.25
56825;BME280;42705;50.326;18.772;2024-01-15T08:53:08;96465.85;;;-0.67;68.12
56825;BME280;42705;50.326;18.772;2024-01-15T08:58:30;96468.52;;;-0.59;67.93
56825;BME280;42705;50.326;18.772;2024-01-15T09:03:52;96466.68;;;-0.51;67.49
56825;BME280;42705;50.326;18.772;2024-01-15T09:09:14;96472.06;;;-0.41;67.23
56825;BME280;42705;50.326;18.772;2024-01-15T09:14:36;96471.11;;;-0.31;66.69
56825;BME280;42705;50.326;18.772;2024-01-15T09:19:58;96470.65;;;-0.23;66.08
56825;BME280;42705;50.326;18.772;2024-01-15T09:25:20;96479.48;;;-0.12;66.14
56825;BME280;42705;50.326;18.772;2024-01-15T09:30:42;96481.56;;;-0.04;65.65
56825;BME280;42705;50.326;18.772;2024-01-15T09:36:04;96477.52;;;0.06;65.41
56825;BME280;42705;50.326;18.772;2024-01-15T09:41:27;96476.95;;;0.19;65.25
56825;BME280;42705;50.326;18.772;2024-01-15T09:46:49;96482.86;;;0.27;64.88
56825;BME280;42705;50.326;18.772;2024-01-15T09:52:12;96477.73;;;0.27;64.12
56825;BME280;42705;50.326;18.772;2024-01-15T09:57:34;96484.84;;;0.28;64.14
56825;BME280;42705;50.326;18.772;2024-01-15T10:02:57;96480.30;;;0.25;63.73
56825;BME280;42705;50.326;18.772;2024-01-15T10:08:20;96476.01;;;0.25;63.84
56825;BME280;42705;50.326;18.772;2024-01-15T10:13:43;96479.63;;;0.27;63.22
56825;BME280;42705;50.326;18.772;2024-01-15T10:19:06;96466.10;;;0.28;63.44
56825;BME280;42705;50.326;18.772;2024-01-15T10:24:29;96462.66;;;0.33;63.34
56825;BME280;42705;50.326;18.772;2024-01-15T10:29:51;96466.23;;;0.35;63.18
56825;BME280;42705;50.326;18.772;2024-01-15T10:35:15;96463.46;;;0.29;62.85
56825;BME280;42705;50.326;18.772;2024-01-15T10:40:37;96464.71;;;0.26;63.18
56825;BME280;42705;50.326;18.772;2024-01-15T10:45:59;96464.64;;;0.23;62.97
56825;BME280;42705;50.326;18.772;2024-01-15T10:51:23;96460.19;;;0.17;62.47
56825;BME280;42705;50.326;18.772;2024-01-15T10:56:46;96458.42;;;0.08;61.94
56825;BME280;42705;50.326;18.772;2024-01-15T11:02:08;96450.59;;;0.06;62.18
56825;BME280;42705;50.326;18.772;2024-01-15T11:07:32;96446.03;;;0.05;61.91
56825;BME280;42705;50.326;18.772;2024-01-15T11:12:54;96454.77;;;0.05;61.72
56825;BME280;42705;50.326;18.772;2024-01-15T11:18:16;96458.34;;;0.05;61.84
56825;BME280;42705;50.326;18.772;2024-01-15T11:23:46;96451.45;;;-0.01;61.56
56825;BME280;42705;50.326;18.772;2024-01-15T11:29:29;96439.89;;;-0.07;62.00
56825;BME280;42705;50.326;18.772;2024-01-15T11:34:56;96435.83;;;-0.10;62.07
56825;BME280;42705;50.326;18.772;2024-01-15T11:45:55;96432.70;;;-0.09;62.05
56825;BME280;42705;50.326;18.772;2024-01-15T11:51:18;96431.64;;;-0.15;62.25
56825;BME280;42705;50.326;18.772;2024-01-15T11:56:40;96429.89;;;-0.24;62.19
56825;BME280;42705;50.326;18.772;2024-01-15T12:02:03;96436.25;;;-0.30;62.71
56825;BME280;42705;50.326;18.772;2024-01-15T12:07:25;96432.70;;;-0.34;62.73
56825;BME280;42705;50.326;18.772;2024-01-15T12:13:04;96425.08;;;-0.28;62.97
56825;BME280;42705;50.326;18.772;2024-01-15T12:18:27;96440.35;;;-0.26;63.08
56825;BME280;42705;50.326;18.772;2024-01-15T12:23:50;96436.76;;;-0.35;63.13
56825;BME280;42705;50.326;18.772;2024-01-15T12:29:17;96429.85;;;-0.43;63.12
56825;BME280;42705;50.326;18.772;2024-01-15T12:34:39;96434.83;;;-0.43;63.00
56825;BME280;42705;50.326;18.772;2024-01-15T12:40:01;96433.40;;;-0.40;62.70
56825;BME280;42705;50.326;18.772;2024-01-15T12:45:24;96427.24;;;-0.40;62.69
56825;BME280;42705;50.326;18.772;2024-01-15T12:50:47;96427.68;;;-0.39;62.71
56825;BME280;42705;50.326;18.772;2024-01-15T12:56:09;96431.85;;;-0.40;62.43
56825;BME280;42705;50.326;18.772;2024-01-15T13:01:31;96429.42;;;-0.39;62.24
56825;BME280;42705;50.326;18.772;2024-01-15T13:06:53;96433.45;;;-0.34;61.79
56825;BME280;42705;50.326;18.772;2024-01-15T13:12:15;96427.65;;;-0.28;61.76
56825;BME280;42705;50.326;18.772;2024-01-15T13:17:38;96420.48;;;-0.22;61.79
56825;BME280;42705;50.326;18.772;2024-01-15T13:23:01;96405.69;;;-0.15;61.41
56825;BME280;42705;50.326;18.772;2024-01-15T13:28:25;96407.61;;;-0.09;61.57
56825;BME280;42705;50.326;18.772;2024-01-15T13:33:47;96410.47;;;-0.10;60.93
56825;BME280;42705;50.326;18.772;2024-01-15T13:39:09;96409.80;;;-0.15;60.99
56825;BME280;42705;50.326;18.772;2024-01-15T13:44:31;96417.75;;;-0.20;60.90
56825;BME280;42705;50.326;18.772;2024-01-15T13:49:52;96426.02;;;-0.27;60.57
56825;BME280;42705;50.326;18.772;2024-01-15T13:55:15;96417.13;;;-0.34;60.59
56825;BME280;42705;50.326;18.772;2024-01-15T14:00:37;96418.09;;;-0.39;60.91
56825;BME280;42705;50.326;18.772;2024-01-15T14:05:58;96421.40;;;-0.45;60.62
56825;BME280;42705;50.326;18.772;2024-01-15T14:11:20;96426.25;;;-0.49;60.67
56825;BME280;42705;50.326;18.772;2024-01-15T14:16:42;96424.50;;;-0.53;61.04
56825;BME280;42705;50.326;18.772;2024-01-15T14:22:04;96419.01;;;-0.55;61.09
56825;BME280;42705;50.326;18.772;2024-01-15T14:27:26;96418.14;;;-0.58;60.96
56825;BME280;42705;50.326;18.772;2024-01-15T14:32:48;96420.13;;;-0.62;61.45
56825;BME280;42705;50.326;18.772;2024-01-15T14:38:10;96427.17;;;-0.60;61.63
56825;BME280;42705;50.326;18.772;2024-01-15T14:43:32;96435.45;;;-0.60;61.43
56825;BME280;42705;50.326;18.772;2024-01-15T14:48:55;96429.08;;;-0.64;61.37
56825;BME280;42705;50.326;18.772;2024-01-15T14:54:17;96429.67;;;-0.69;61.68
56825;BME280;42705;50.326;18.772;2024-01-15T14:59:41;96438.34;;;-0.73;61.88
56825;BME280;42705;50.326;18.772;2024-01-15T15:05:03;96441.59;;;-0.72;62.09
56825;BME280;42705;50.326;18.772;2024-01-15T15:10:25;96437.27;;;-0.70;62.06
56825;BME280;42705;50.326;18.772;2024-01-15T15:15:48;96440.05;;;-0.71;62.05
56825;BME280;42705;50.326;18.772;2024-01-15T15:21:10;96441.02;;;-0.72;61.65
56825;BME280;42705;50.326;18.772;2024-01-15T15:26:32;96438.94;;;-0.74;61.99
56825;BME280;42705;50.326;18.772;2024-01-15T15:31:54;96444.55;;;-0.76;61.85
56825;BME280;42705;50.326;18.772;2024-01-15T15:37:16;96454.52;;;-0.71;61.94
56825;BME280;42705;50.326;18.772;2024-01-15T15:42:38;96449.47;;;-0.68;61.90
56825;BME280;42705;50.326;18.772;2024-01-15T15:48:00;96459.12;;;-0.69;61.99
56825;BME280;42705;50.326;18.772;2024-01-15T15:53:22;96459.97;;;-0.71;62.05
56825;BME280;42705;50.326;18.772;2024-01-15T15:58:44;96460.11;;;-0.73;62.11
56825;BME280;42705;50.326;18.772;2024-01-15T16:04:05;96467.90;;;-0.74;62.16
56825;BME280;42705;50.326;18.772;2024-01-15T16:09:27;96478.95;;;-0.68;61.89
56825;BME280;42705;50.326;18.772;2024-01-15T16:14:49;96475.84;;;-0.65;61.84
56825;BME280;42705;50.326;18.772;2024-01-15T16:20:11;96473.40;;;-0.65;62.00
56825;BME280;42705;50.326;18.772;2024-01-15T16:25:33;96473.17;;;-0.67;61.92
56825;BME280;42705;50.326;18.772;2024-01-15T16:30:59;96473.20;;;-0.67;61.90
56825;BME280;42705;50.326;18.772;2024-01-15T16:36:21;96469.48;;;-0.67;61.65
56825;BME280;42705;50.326;18.772;2024-01-15T16:41:43;96479.45;;;-0.64;61.70
56825;BME280;42705;50.326;18.772;2024-01-15T16:47:05;96479.32;;;-0.57;61.52
56825;BME280;42705;50.326;18.772;2024-01-15T16:52:26;96474.27;;;-0.56;61.55
56825;BME280;42705;50.326;18.772;2024-01-15T16:57:49;96476.98;;;-0.58;61.60
56825;BME280;42705;50.326;18.772;2024-01-15T17:03:11;96487.96;;;-0.61;61.60
56825;BME280;42705;50.326;18.772;2024-01-15T17:08:33;96489.40;;;-0.64;61.96
56825;BME280;42705;50.326;18.772;2024-01-15T17:13:55;96503.28;;;-0.64;62.05
56825;BME280;42705;50.326;18.772;2024-01-15T17:19:16;96495.06;;;-0.59;62.21
56825;BME280;42705;50.326;18.772;2024-01-15T17:24:38;96503.85;;;-0.57;62.21
56825;BME280;42705;50.326;18.772;2024-01-15T17:30:00;96490.73;;;-0.61;62.32
56825;BME280;42705;50.326;18.772;2024-01-15T17:35:22;96499.83;;;-0.65;62.57
56825;BME280;42705;50.326;18.772;2024-01-15T17:40:45;96506.73;;;-0.70;62.73
56825;BME280;42705;50.326;18.772;2024-01-15T17:46:07;96512.84;;;-0.69;63.08
56825;BME280;42705;50.326;18.772;2024-01-15T17:51:31;96510.40;;;-0.74;63.28
56825;BME280;42705;50.326;18.772;2024-01-15T17:56:53;96510.42;;;-0.83;63.78
56825;BME280;42705;50.326;18.772;2024-01-15T18:02:15;96515.59;;;-0.88;64.04
56825;BME280;42705;50.326;18.772;2024-01-15T18:07:37;96514.45;;;-0.82;64.02
56825;BME280;42705;50.326;18.772;2024-01-15T18:12:59;96518.71;;;-0.79;63.69
56825;BME280;42705;50.326;18.772;2024-01-15T18:18:21;96518.29;;;-0.81;63.63
56825;BME280;42705;50.326;18.772;2024-01-15T18:23:43;96514.82;;;-0.82;63.81
56825;BME280;42705;50.326;18.772;2024-01-15T18:29:05;96523.20;;;-0.80;63.77
56825;BME280;42705;50.326;18.772;2024-01-15T18:34:28;96521.66;;;-0.80;63.95
56825;BME280;42705;50.326;18.772;2024-01-15T18:39:50;96529.95;;;-0.80;63.94
56825;BME280;42705;50.326;18.772;2024-01-15T18:45:13;96530.52;;;-0.81;64.07
56825;BME280;42705;50.326;18.772;2024-01-15T18:50:35;96533.17;;;-0.80;64.35
56825;BME280;42705;50.326;18.772;2024-01-15T18:55:57;96533.28;;;-0.82;64.57
56825;BME280;42705;50.326;18.772;2024-01-15T19:01:26;96537.58;;;-0.86;64.75
56825;BME280;42705;50.326;18.772;2024-01-15T19:06:49;96540.58;;;-0.90;65.13
56825;BME280;42705;50.326;18.772;2024-01-15T19:12:11;96536.02;;;-0.86;65.07
56825;BME280;42705;50.326;18.772;2024-01-15T19:17:32;96539.86;;;-0.87;65.16
56825;BME280;42705;50.326;18.772;2024-01-15T19:22:55;96545.11;;;-0.91;65.11
56825;BME280;42705;50.326;18.772;2024-01-15T19:28:17;96542.02;;;-0.93;64.83
56825;BME280;42705;50.326;18.772;2024-01-15T19:33:39;96551.60;;;-0.93;64.82
56825;BME280;42705;50.326;18.772;2024-01-15T19:39:01;96552.44;;;-0.95;64.92
56825;BME280;42705;50.326;18.772;2024-01-15T19:44:23;96550.02;;;-1.02;65.16
56825;BME280;42705;50.326;18.772;2024-01-15T19:49:46;96555.64;;;-1.08;65.69
56825;BME280;42705;50.326;18.772;2024-01-15T19:55:09;96564.63;;;-1.14;66.03
56825;BME280;42705;50.326;18.772;2024-01-15T20:00:31;96572.36;;;-1.17;66.06
56825;BME280;42705;50.326;18.772;2024-01-15T20:05:53;96572.33;;;-1.14;66.27
56825;BME280;42705;50.326;18.772;2024-01-15T20:11:15;96581.13;;;-1.08;66.05
56825;BME280;42705;50.326;18.772;2024-01-15T20:16:36;96582.60;;;-1.07;65.67
56825;BME280;42705;50.326;18.772;2024-01-15T20:21:59;96587.91;;;-1.07;65.47
56825;BME280;42705;50.326;18.772;2024-01-15T20:27:22;96597.41;;;-1.10;65.26
56825;BME280;42705;50.326;18.772;2024-01-15T20:32:47;96606.61;;;-1.09;65.30
56825;BME280;42705;50.326;18.772;2024-01-15T20:38:12;96615.14;;;-1.09;65.27
56825;BME280;42705;50.326;18.772;2024-01-15T20:43:36;96623.69;;;-1.08;65.00
56825;BME280;42705;50.326;18.772;2024-01-15T20:48:58;96617.73;;;-1.11;65.14
56825;BME280;42705;50.326;18.772;2024-01-15T20:54:21;96629.62;;;-1.08;65.17
56825;BME280;42705;50.326;18.772;2024-01-15T20:59:43;96635.38;;;-1.02;65.10
56825;BME280;42705;50.326;18.772;2024-01-15T21:05:05;96632.60;;;-1.02;65.05
56825;BME280;42705;50.326;18.772;2024-01-15T21:10:27;96639.35;;;-1.05;64.82
56825;BME280;42705;50.326;18.772;2024-01-15T21:15:49;96645.55;;;-1.10;64.93
56825;BME280;42705;50.326;18.772;2024-01-15T21:21:11;96658.84;;;-1.14;65.00
56825;BME280;42705;50.326;18.772;2024-01-15T21:26:33;96668.64;;;-1.09;65.08
56825;BME280;42705;50.326;18.772;2024-01-15T21:31:55;96667.70;;;-1.03;65.24
56825;BME280;42705;50.326;18.772;2024-01-15T21:37:17;96672.08;;;-1.05;65.03
56825;BME280;42705;50.326;18.772;2024-01-15T21:42:39;96670.02;;;-1.07;65.15
56825;BME280;42705;50.326;18.772;2024-01-15T21:48:01;96679.02;;;-1.13;65.18
56825;BME280;42705;50.326;18.772;2024-01-15T21:53:23;96684.99;;;-1.18;65.15
56825;BME280;42705;50.326;18.772;2024-01-15T21:58:45;96688.04;;;-1.12;65.28
56825;BME280;42705;50.326;18.772;2024-01-15T22:04:07;96688.19;;;-1.09;65.54
56825;BME280;42705;50.326;18.772;2024-01-15T22:09:29;96699.09;;;-1.16;65.49
56825;BME280;42705;50.326;18.772;2024-01-15T22:14:51;96704.81;;;-1.26;65.63
56825;BME280;42705;50.326;18.772;2024-01-15T22:20:13;96716.54;;;-1.33;65.67
56825;BME280;42705;50.326;18.772;2024-01-15T22:25:35;96720.17;;;-1.33;66.28
56825;BME280;42705;50.326;18.772;2024-01-15T22:30:57;96729.02;;;-1.37;66.78
56825;BME280;42705;50.326;18.772;2024-01-15T22:36:19;96739.17;;;-1.43;67.01
56825;BME280;42705;50.326;18.772;2024-01-15T22:41:41;96732.89;;;-1.48;67.17
56825;BME280;42705;50.326;18.772;2024-01-15T22:47:02;96740.05;;;-1.46;67.68
56825;BME280;42705;50.326;18.772;2024-01-15T22:52:24;96741.91;;;-1.43;67.50
56825;BME280;42705;50.326;18.772;2024-01-15T22:57:46;96739.04;;;-1.41;67.46
56825;BME280;42705;50.326;18.772;2024-01-15T23:03:08;96744.98;;;-1.40;67.40
56825;BME280;42705;50.326;18.772;2024-01-15T23:08:30;96749.99;;;-1.31;67.31
56825;BME280;42705;50.326;18.772;2024-01-15T23:13:51;96753.19;;;-1.25;66.92
56825;BME280;42705;50.326;18.772;2024-01-15T23:19:14;96761.39;;;-1.22;66.69
56825;BME280;42705;50.326;18.772;2024-01-15T23:24:36;96765.49;;;-1.25;66.64
56825;BME280;42705;50.326;18.772;2024-01-15T23:29:58;96775.55;;;-1.26;66.46
56825;BME280;42705;50.326;18.772;2024-01-15T23:35:20;96782.38;;;-1.21;66.79
56825;BME280;42705;50.326;18.772;2024-01-15T23:40:44;96783.83;;;-1.18;66.56
56825;BME280;42705;50.326;18.772;2024-01-15T23:46:26;96784.14;;;-1.17;66.40
56825;BME280;42705;50.326;18.772;2024-01-15T23:51:51;96781.63;;;-1.18;66.32
56825;BME280;42705;50.326;18.772;2024-01-15T23:57:13;96789.21;;;-1.16;66.38
